createdAt,value
2023-01-06T00:00:23.271Z,41.40
2023-01-06T00:01:05.003Z,41.88
2023-01-06T00:01:37.283Z,41.52
2023-01-06T00:02:12.226Z,41.51
2023-01-06T00:02:45.481Z,41.60
2023-01-06T00:03:17.720Z,41.24
2023-01-06T00:03:54.013Z,41.54
2023-01-06T00:04:26.296Z,41.66
2023-01-06T00:04:58.593Z,41.20
2023-01-06T00:05:33.523Z,41.46
2023-01-06T00:06:08.363Z,41.41
2023-01-06T00:06:43.218Z,41.42
2023-01-06T00:07:15.565Z,41.26
2023-01-06T00:07:49.492Z,41.27
2023-01-06T00:08:24.305Z,41.10
2023-01-06T00:08:57.538Z,41.28
2023-01-06T00:09:29.754Z,41.24
2023-01-06T00:10:04.648Z,41.44
2023-01-06T00:10:37.109Z,42.10
2023-01-06T00:11:11.293Z,41.74
2023-01-06T00:11:46.138Z,41.54
2023-01-06T00:12:18.382Z,41.93
2023-01-06T00:12:50.822Z,41.80
2023-01-06T00:13:26.366Z,41.97
2023-01-06T00:14:01.302Z,42.07
2023-01-06T00:14:36.190Z,41.72
2023-01-06T00:15:09.236Z,41.75
2023-01-06T00:15:41.472Z,41.90
2023-01-06T00:16:18.928Z,42.06
2023-01-06T00:16:51.294Z,42.02
2023-01-06T00:17:23.557Z,42.49
2023-01-06T00:17:58.380Z,42.09
2023-01-06T00:18:30.646Z,42.26
2023-01-06T00:19:02.902Z,42.02
2023-01-06T00:19:37.742Z,42.34
2023-01-06T00:20:12.021Z,42.05
2023-01-06T00:20:44.300Z,41.83
2023-01-06T00:21:19.215Z,41.63
2023-01-06T00:21:51.457Z,41.76
2023-01-06T00:22:23.686Z,42.19
2023-01-06T00:22:58.502Z,41.68
2023-01-06T00:23:31.153Z,41.82
2023-01-06T00:24:03.445Z,42.03
2023-01-06T00:24:38.334Z,42.12
2023-01-06T00:25:11.204Z,41.92
2023-01-06T00:25:52.402Z,41.96
2023-01-06T00:26:25.110Z,42.00
2023-01-06T00:26:59.968Z,41.88
2023-01-06T00:27:32.572Z,42.09
2023-01-06T00:28:04.902Z,42.27
2023-01-06T00:28:40.991Z,42.26
2023-01-06T00:29:15.819Z,42.26
2023-01-06T00:29:49.692Z,42.00
2023-01-06T00:30:25.439Z,42.12
2023-01-06T00:30:57.917Z,42.36
2023-01-06T00:31:32.844Z,41.75
2023-01-06T00:32:05.654Z,42.31
2023-01-06T00:32:37.888Z,42.36
2023-01-06T00:33:12.878Z,42.09
2023-01-06T00:33:46.651Z,41.87
2023-01-06T00:34:18.974Z,42.34
2023-01-06T00:34:53.799Z,41.88
2023-01-06T00:35:26.092Z,42.41
2023-01-06T00:35:59.611Z,42.05
2023-01-06T00:36:34.463Z,42.18
2023-01-06T00:37:07.815Z,42.08
2023-01-06T00:37:40.093Z,41.80
2023-01-06T00:38:15.211Z,42.33
2023-01-06T00:38:49.291Z,41.76
2023-01-06T00:39:24.312Z,41.92
2023-01-06T00:39:56.564Z,42.14
2023-01-06T00:40:28.799Z,41.90
2023-01-06T00:41:26.461Z,42.31
2023-01-06T00:42:04.668Z,42.43
2023-01-06T00:42:36.956Z,42.29
2023-01-06T00:43:12.253Z,41.92
2023-01-06T00:43:44.487Z,42.36
2023-01-06T00:44:19.345Z,41.89
2023-01-06T00:44:55.215Z,41.95
2023-01-06T00:45:27.494Z,42.21
2023-01-06T00:46:02.060Z,42.22
2023-01-06T00:46:37.384Z,42.15
2023-01-06T00:47:11.128Z,42.20
2023-01-06T00:47:46.181Z,42.31
2023-01-06T00:48:18.455Z,42.05
2023-01-06T00:49:04.207Z,42.30
2023-01-06T00:49:41.628Z,42.35
2023-01-06T00:50:13.904Z,42.29
2023-01-06T00:50:46.128Z,42.42
2023-01-06T00:51:20.969Z,42.22
2023-01-06T00:51:54.954Z,42.09
2023-01-06T00:52:29.819Z,42.18
2023-01-06T00:53:02.241Z,42.63
2023-01-06T00:53:34.507Z,42.31
2023-01-06T00:54:10.194Z,41.98
2023-01-06T00:54:43.244Z,42.06
2023-01-06T00:55:18.235Z,42.29
2023-01-06T00:55:50.478Z,42.00
2023-01-06T00:56:22.720Z,42.38
2023-01-06T00:56:58.081Z,42.37
2023-01-06T00:57:30.344Z,42.50
2023-01-06T00:58:05.176Z,42.05
2023-01-06T00:58:37.431Z,42.49
2023-01-06T00:59:10.508Z,42.43
2023-01-06T00:59:47.928Z,42.65
2023-01-06T01:00:20.699Z,42.43
2023-01-06T01:00:53.294Z,42.17
2023-01-06T01:01:28.274Z,42.02
2023-01-06T01:02:00.707Z,42.22
2023-01-06T01:02:36.014Z,42.35
2023-01-06T01:03:08.354Z,42.09
2023-01-06T01:03:40.736Z,42.23
2023-01-06T01:04:16.088Z,42.40
2023-01-06T01:04:48.350Z,42.07
2023-01-06T01:05:24.308Z,42.30
2023-01-06T01:05:59.724Z,42.51
2023-01-06T01:06:33.184Z,42.55
2023-01-06T01:07:08.308Z,42.48
2023-01-06T01:07:41.262Z,42.31
2023-01-06T01:08:13.503Z,42.41
2023-01-06T01:08:47.278Z,42.46
2023-01-06T01:09:24.464Z,42.37
2023-01-06T01:09:56.704Z,42.06
2023-01-06T01:10:28.950Z,42.00
2023-01-06T01:11:06.431Z,42.16
2023-01-06T01:11:53.702Z,42.25
2023-01-06T01:12:25.988Z,42.42
2023-01-06T01:13:00.849Z,42.21
2023-01-06T01:13:33.440Z,42.38
2023-01-06T01:14:05.719Z,42.33
2023-01-06T01:14:49.783Z,42.23
2023-01-06T01:15:22.620Z,42.60
2023-01-06T01:15:57.876Z,42.37
2023-01-06T01:16:30.286Z,42.14
2023-01-06T01:17:02.958Z,42.46
2023-01-06T01:17:37.839Z,42.08
2023-01-06T01:18:10.078Z,42.52
2023-01-06T01:18:42.331Z,42.41
2023-01-06T01:19:17.403Z,42.22
2023-01-06T01:19:52.499Z,42.13
2023-01-06T01:20:27.331Z,42.34
2023-01-06T01:20:59.570Z,42.15
2023-01-06T01:21:32.184Z,42.44
2023-01-06T01:22:07.492Z,42.41
2023-01-06T01:22:42.223Z,42.25
2023-01-06T01:23:14.538Z,42.08
2023-01-06T01:23:46.819Z,42.34
2023-01-06T01:24:21.992Z,42.09
2023-01-06T01:24:54.780Z,42.28
2023-01-06T01:25:29.647Z,42.37
2023-01-06T01:26:01.891Z,42.01
2023-01-06T01:26:34.147Z,42.46
2023-01-06T01:27:09.436Z,42.38
2023-01-06T01:27:41.741Z,42.37
2023-01-06T01:28:13.985Z,42.38
2023-01-06T01:28:48.857Z,42.33
2023-01-06T01:29:21.150Z,42.24
2023-01-06T01:30:00.580Z,42.60
2023-01-06T01:30:32.876Z,42.46
2023-01-06T01:31:05.210Z,42.65
2023-01-06T01:31:40.106Z,42.38
2023-01-06T01:32:12.333Z,42.29
2023-01-06T01:32:47.186Z,42.41
2023-01-06T01:33:19.435Z,42.31
2023-01-06T01:33:51.738Z,42.09
2023-01-06T01:34:29.581Z,42.50
2023-01-06T01:35:01.974Z,42.41
2023-01-06T01:35:34.229Z,42.17
2023-01-06T01:36:07.294Z,42.34
2023-01-06T01:36:43.246Z,42.61
2023-01-06T01:37:16.229Z,42.50
2023-01-06T01:37:51.097Z,42.58
2023-01-06T01:38:23.376Z,42.60
2023-01-06T01:38:56.338Z,42.34
2023-01-06T01:39:32.223Z,42.21
2023-01-06T01:40:06.071Z,42.31
2023-01-06T01:40:38.297Z,42.32
2023-01-06T01:41:17.167Z,42.21
2023-01-06T01:41:49.918Z,42.52
2023-01-06T01:42:24.755Z,42.34
2023-01-06T01:42:57.977Z,42.43
2023-01-06T01:43:44.226Z,42.73
2023-01-06T01:44:54.879Z,42.71
2023-01-06T01:45:30.208Z,42.48
2023-01-06T01:46:06.049Z,42.44
2023-01-06T01:46:40.195Z,42.78
2023-01-06T01:47:17.767Z,42.34
2023-01-06T01:47:52.699Z,42.79
2023-01-06T01:48:30.727Z,42.63
2023-01-06T01:49:05.716Z,42.44
2023-01-06T01:49:40.175Z,42.32
2023-01-06T01:50:26.044Z,42.80
2023-01-06T01:50:59.252Z,42.48
2023-01-06T01:51:35.353Z,42.72
2023-01-06T01:52:11.118Z,42.38
2023-01-06T01:52:44.730Z,42.89
2023-01-06T01:53:22.598Z,42.53
2023-01-06T01:53:57.681Z,42.60
2023-01-06T01:54:31.250Z,42.80
2023-01-06T01:55:07.195Z,42.34
2023-01-06T01:55:40.326Z,42.58
2023-01-06T01:56:17.689Z,42.91
2023-01-06T01:56:56.312Z,42.75
2023-01-06T01:57:33.153Z,42.83
2023-01-06T01:58:11.023Z,42.77
2023-01-06T01:58:46.359Z,42.53
2023-01-06T01:59:21.471Z,42.58
2023-01-06T01:59:56.738Z,42.84
2023-01-06T02:00:31.580Z,42.59
2023-01-06T02:01:06.627Z,42.65
2023-01-06T02:01:39.031Z,42.43
2023-01-06T02:02:11.596Z,42.40
2023-01-06T02:02:46.602Z,42.67
2023-01-06T02:03:20.062Z,42.66
2023-01-06T02:03:52.960Z,42.39
2023-01-06T02:04:29.238Z,43.04
2023-01-06T02:05:03.864Z,42.50
2023-01-06T02:05:41.914Z,42.65
2023-01-06T02:06:16.450Z,42.46
2023-01-06T02:06:50.699Z,42.59
2023-01-06T02:07:25.668Z,42.92
2023-01-06T02:08:01.794Z,42.49
2023-01-06T02:08:35.894Z,42.52
2023-01-06T02:09:14.022Z,42.75
2023-01-06T02:09:53.896Z,42.75
2023-01-06T02:10:26.212Z,42.96
2023-01-06T02:11:01.157Z,42.87
2023-01-06T02:11:34.799Z,42.84
2023-01-06T02:12:07.415Z,42.81
2023-01-06T02:12:42.690Z,42.66
2023-01-06T02:13:15.057Z,42.92
2023-01-06T02:13:48.319Z,42.77
2023-01-06T02:14:26.236Z,42.55
2023-01-06T02:14:58.756Z,42.69
2023-01-06T02:15:37.337Z,42.69
2023-01-06T02:16:17.147Z,42.87
2023-01-06T02:16:58.533Z,42.58
2023-01-06T02:18:09.665Z,42.75
2023-01-06T02:18:51.042Z,43.11
2023-01-06T02:19:47.486Z,42.82
2023-01-06T02:20:57.552Z,42.87
2023-01-06T02:21:41.449Z,42.80
2023-01-06T02:22:26.123Z,43.03
2023-01-06T02:23:18.199Z,42.96
2023-01-06T02:24:25.915Z,42.96
2023-01-06T02:25:22.428Z,43.08
2023-01-06T02:26:41.815Z,42.71
2023-01-06T02:27:43.191Z,42.75
2023-01-06T02:28:47.898Z,42.81
2023-01-06T02:29:54.969Z,42.83
2023-01-06T02:30:52.589Z,42.85
2023-01-06T02:31:39.394Z,42.92
2023-01-06T02:32:33.578Z,42.89
2023-01-06T02:33:13.500Z,42.84
2023-01-06T02:33:50.193Z,42.63
2023-01-06T02:34:30.120Z,42.67
2023-01-06T02:35:17.309Z,42.76
2023-01-06T02:36:12.055Z,42.89
2023-01-06T02:36:52.348Z,43.07
2023-01-06T02:37:33.155Z,42.90
2023-01-06T02:38:16.739Z,42.87
2023-01-06T02:39:02.605Z,42.97
2023-01-06T02:39:46.196Z,43.10
2023-01-06T02:40:32.358Z,43.11
2023-01-06T02:41:13.075Z,42.79
2023-01-06T02:41:55.768Z,42.87
2023-01-06T02:42:34.808Z,42.96
2023-01-06T02:43:14.803Z,43.15
2023-01-06T02:43:55.464Z,42.64
2023-01-06T02:44:31.242Z,43.05
2023-01-06T02:45:12.245Z,43.04
2023-01-06T02:45:52.354Z,42.84
2023-01-06T02:46:49.875Z,42.96
2023-01-06T02:47:30.784Z,42.87
2023-01-06T02:48:13.165Z,42.72
2023-01-06T02:48:51.580Z,43.12
2023-01-06T02:49:28.719Z,42.73
2023-01-06T02:50:12.953Z,42.65
2023-01-06T02:50:50.169Z,42.99
2023-01-06T02:51:26.743Z,42.78
2023-01-06T02:52:05.945Z,42.73
2023-01-06T02:52:56.060Z,43.04
2023-01-06T02:53:33.198Z,42.91
2023-01-06T02:54:14.208Z,42.77
2023-01-06T02:54:52.907Z,42.91
2023-01-06T02:55:31.304Z,42.94
2023-01-06T02:56:03.847Z,42.87
2023-01-06T02:56:39.846Z,42.98
2023-01-06T02:57:18.106Z,43.01
2023-01-06T02:57:53.798Z,42.82
2023-01-06T02:58:30.100Z,43.16
2023-01-06T02:59:07.963Z,42.72
2023-01-06T02:59:46.120Z,42.86
2023-01-06T03:00:22.720Z,42.94
2023-01-06T03:01:01.949Z,43.27
2023-01-06T03:01:37.151Z,43.20
2023-01-06T03:02:12.285Z,43.01
2023-01-06T03:02:50.579Z,43.11
2023-01-06T03:03:24.254Z,43.02
2023-01-06T03:04:00.370Z,42.98
2023-01-06T03:04:40.101Z,42.85
2023-01-06T03:05:16.319Z,43.33
2023-01-06T03:05:51.569Z,42.79
2023-01-06T03:06:28.734Z,43.22
2023-01-06T03:07:03.484Z,43.32
2023-01-06T03:07:37.343Z,43.04
2023-01-06T03:08:16.130Z,43.11
2023-01-06T03:08:49.434Z,43.18
2023-01-06T03:09:30.806Z,43.20
2023-01-06T03:10:04.598Z,43.07
2023-01-06T03:10:39.971Z,43.06
2023-01-06T03:11:13.635Z,43.38
2023-01-06T03:11:49.555Z,43.40
2023-01-06T03:12:30.203Z,43.19
2023-01-06T03:13:06.686Z,43.19
2023-01-06T03:13:43.456Z,43.40
2023-01-06T03:14:24.140Z,42.95
2023-01-06T03:14:57.194Z,43.35
2023-01-06T03:15:30.141Z,43.18
2023-01-06T03:16:05.065Z,42.98
2023-01-06T03:16:37.370Z,43.17
2023-01-06T03:17:14.975Z,43.24
2023-01-06T03:17:47.402Z,42.82
2023-01-06T03:18:19.960Z,43.08
2023-01-06T03:18:55.733Z,42.86
2023-01-06T03:19:31.402Z,43.34
2023-01-06T03:20:07.300Z,43.02
2023-01-06T03:20:43.267Z,43.40
2023-01-06T03:21:18.655Z,43.49
2023-01-06T03:21:51.612Z,43.24
2023-01-06T03:22:30.541Z,43.17
2023-01-06T03:23:02.827Z,43.10
2023-01-06T03:23:41.105Z,43.10
2023-01-06T03:24:14.030Z,43.32
2023-01-06T03:24:47.103Z,42.96
2023-01-06T03:25:23.445Z,43.05
2023-01-06T03:25:56.398Z,42.91
2023-01-06T03:26:31.423Z,43.25
2023-01-06T03:27:07.599Z,43.41
2023-01-06T03:27:40.746Z,43.16
2023-01-06T03:28:13.369Z,43.05
2023-01-06T03:28:49.220Z,43.34
2023-01-06T03:29:24.584Z,43.49
2023-01-06T03:29:56.879Z,43.23
2023-01-06T03:30:42.620Z,43.09
2023-01-06T03:31:18.929Z,43.08
2023-01-06T03:32:00.785Z,43.36
2023-01-06T03:32:44.979Z,42.96
2023-01-06T03:33:23.165Z,43.30
2023-01-06T03:34:01.939Z,43.42
2023-01-06T03:35:08.376Z,42.82
2023-01-06T03:35:48.730Z,43.42
2023-01-06T03:36:30.228Z,43.09
2023-01-06T03:37:08.643Z,43.56
2023-01-06T03:37:47.692Z,43.10
2023-01-06T03:38:33.956Z,43.25
2023-01-06T03:39:09.541Z,43.76
2023-01-06T03:39:50.903Z,43.48
2023-01-06T03:40:34.379Z,43.41
2023-01-06T03:41:18.555Z,43.01
2023-01-06T03:42:09.872Z,42.92
2023-01-06T03:43:01.747Z,43.18
2023-01-06T03:43:39.478Z,43.04
2023-01-06T03:44:15.977Z,42.94
2023-01-06T03:44:55.278Z,42.95
2023-01-06T03:45:42.142Z,42.82
2023-01-06T03:46:25.229Z,43.33
2023-01-06T03:47:04.558Z,43.28
2023-01-06T03:47:43.922Z,42.87
2023-01-06T03:48:25.486Z,43.07
2023-01-06T03:49:04.922Z,43.18
2023-01-06T03:49:44.738Z,43.11
2023-01-06T03:50:19.904Z,43.16
2023-01-06T03:50:58.578Z,42.96
2023-01-06T03:51:40.833Z,43.28
2023-01-06T03:52:21.347Z,43.05
2023-01-06T03:52:59.099Z,43.41
2023-01-06T03:53:38.403Z,43.16
2023-01-06T03:54:18.455Z,43.04
2023-01-06T03:54:56.618Z,43.52
2023-01-06T03:55:34.301Z,43.12
2023-01-06T03:56:13.205Z,43.18
2023-01-06T03:56:49.392Z,43.06
2023-01-06T03:57:27.711Z,43.16
2023-01-06T03:58:01.466Z,43.40
2023-01-06T03:58:35.439Z,43.17
2023-01-06T03:59:14.135Z,43.20
2023-01-06T03:59:49.682Z,43.12
2023-01-06T04:00:24.433Z,43.30
2023-01-06T04:01:06.647Z,43.21
2023-01-06T04:01:39.809Z,43.31
2023-01-06T04:02:12.681Z,43.34
2023-01-06T04:02:50.719Z,43.36
2023-01-06T04:03:27.454Z,43.42
2023-01-06T04:04:02.005Z,43.14
2023-01-06T04:04:37.959Z,43.52
2023-01-06T04:05:13.431Z,43.77
2023-01-06T04:05:47.196Z,43.45
2023-01-06T04:06:23.252Z,43.13
2023-01-06T04:06:56.387Z,43.42
2023-01-06T04:07:28.625Z,43.35
2023-01-06T04:08:03.451Z,43.15
2023-01-06T04:08:35.801Z,43.39
2023-01-06T04:09:10.831Z,43.42
2023-01-06T04:09:43.125Z,43.26
2023-01-06T04:10:17.749Z,43.28
2023-01-06T04:10:54.925Z,43.32
2023-01-06T04:11:43.571Z,43.30
2023-01-06T04:12:30.968Z,43.11
2023-01-06T04:13:03.442Z,43.53
2023-01-06T04:13:39.098Z,43.66
2023-01-06T04:14:11.674Z,43.52
2023-01-06T04:14:46.881Z,43.63
2023-01-06T04:15:21.118Z,43.28
2023-01-06T04:15:54.193Z,43.42
2023-01-06T04:16:29.300Z,43.35
2023-01-06T04:17:01.754Z,43.42
2023-01-06T04:17:34.755Z,43.36
2023-01-06T04:18:12.217Z,43.47
2023-01-06T04:18:46.906Z,43.76
2023-01-06T04:19:19.739Z,43.37
2023-01-06T04:19:55.147Z,43.57
2023-01-06T04:20:29.140Z,43.41
2023-01-06T04:21:13.878Z,43.44
2023-01-06T04:21:47.899Z,43.43
2023-01-06T04:22:20.203Z,43.54
2023-01-06T04:22:56.642Z,43.36
2023-01-06T04:23:33.108Z,43.34
2023-01-06T04:24:08.727Z,43.28
2023-01-06T04:24:44.701Z,43.72
2023-01-06T04:25:17.203Z,43.38
2023-01-06T04:25:52.335Z,43.67
2023-01-06T04:26:36.069Z,43.34
2023-01-06T04:27:08.294Z,43.73
2023-01-06T04:27:43.373Z,43.33
2023-01-06T04:28:16.186Z,43.62
2023-01-06T04:28:49.565Z,43.87
2023-01-06T04:29:24.480Z,43.51
2023-01-06T04:29:59.354Z,43.81
2023-01-06T04:30:34.182Z,43.49
2023-01-06T04:31:08.862Z,43.73
2023-01-06T04:31:41.195Z,43.50
2023-01-06T04:32:16.084Z,43.55
2023-01-06T04:32:49.233Z,43.46
2023-01-06T04:33:24.155Z,43.80
2023-01-06T04:34:00.919Z,43.78
2023-01-06T04:34:33.234Z,43.76
2023-01-06T04:35:06.650Z,43.40
2023-01-06T04:35:41.562Z,43.59
2023-01-06T04:36:16.450Z,43.69
2023-01-06T04:36:53.488Z,43.59
2023-01-06T04:37:28.595Z,43.48
2023-01-06T04:38:02.123Z,43.56
2023-01-06T04:38:34.357Z,43.59
2023-01-06T04:39:09.383Z,43.76
2023-01-06T04:39:41.641Z,43.60
2023-01-06T04:40:16.493Z,43.96
2023-01-06T04:40:48.715Z,43.85
2023-01-06T04:41:20.993Z,43.61
2023-01-06T04:41:55.840Z,43.69
2023-01-06T04:42:28.104Z,43.93
2023-01-06T04:43:06.378Z,43.71
2023-01-06T04:43:41.262Z,44.00
2023-01-06T04:44:13.500Z,44.02
2023-01-06T04:44:48.330Z,43.62
2023-01-06T04:45:20.607Z,43.85
2023-01-06T04:45:53.010Z,43.81
2023-01-06T04:46:27.936Z,44.02
2023-01-06T04:47:00.197Z,43.49
2023-01-06T04:47:32.936Z,43.88
2023-01-06T04:48:08.600Z,43.45
2023-01-06T04:48:43.677Z,43.78
2023-01-06T04:49:15.942Z,43.88
2023-01-06T04:49:50.789Z,43.74
2023-01-06T04:50:23.046Z,43.59
2023-01-06T04:51:04.271Z,43.61
2023-01-06T04:51:36.546Z,43.80
2023-01-06T04:52:11.619Z,43.59
2023-01-06T04:52:43.843Z,43.85
2023-01-06T04:53:16.129Z,43.55
2023-01-06T04:53:50.992Z,43.83
2023-01-06T04:54:23.210Z,44.02
2023-01-06T04:54:55.429Z,44.07
2023-01-06T04:55:30.302Z,44.05
2023-01-06T04:56:06.757Z,44.05
2023-01-06T04:56:41.616Z,44.09
2023-01-06T04:57:13.835Z,44.17
2023-01-06T04:57:46.065Z,44.03
2023-01-06T04:58:20.903Z,43.86
2023-01-06T04:58:55.476Z,43.88
2023-01-06T04:59:30.343Z,44.02
2023-01-06T05:00:02.633Z,44.06
2023-01-06T05:00:34.998Z,44.01
2023-01-06T05:01:11.812Z,43.87
2023-01-06T05:01:44.223Z,44.01
2023-01-06T05:02:17.061Z,44.17
2023-01-06T05:02:51.919Z,44.00
2023-01-06T05:03:24.159Z,44.02
2023-01-06T05:03:59.035Z,44.12
2023-01-06T05:04:43.384Z,43.77
2023-01-06T05:05:19.129Z,43.57
2023-01-06T05:05:51.344Z,44.14
2023-01-06T05:06:26.236Z,44.03
2023-01-06T05:06:58.499Z,43.73
2023-01-06T05:07:30.731Z,44.16
2023-01-06T05:08:05.546Z,43.64
2023-01-06T05:08:38.417Z,44.03
2023-01-06T05:09:10.808Z,43.99
2023-01-06T05:09:45.660Z,43.90
2023-01-06T05:10:18.075Z,44.17
2023-01-06T05:10:50.290Z,43.66
2023-01-06T05:11:27.309Z,44.14
2023-01-06T05:11:59.534Z,43.86
2023-01-06T05:12:31.815Z,44.00
2023-01-06T05:13:06.699Z,44.07
2023-01-06T05:13:39.377Z,44.02
2023-01-06T05:14:14.217Z,44.20
2023-01-06T05:14:46.504Z,43.85
2023-01-06T05:15:18.727Z,44.20
2023-01-06T05:15:53.584Z,43.85
2023-01-06T05:16:27.297Z,43.76
2023-01-06T05:16:59.656Z,43.94
2023-01-06T05:17:34.635Z,43.90
2023-01-06T05:18:06.912Z,44.06
2023-01-06T05:18:39.209Z,44.30
2023-01-06T05:19:16.648Z,44.13
2023-01-06T05:19:48.889Z,44.43
2023-01-06T05:20:21.111Z,44.09
2023-01-06T05:20:57.143Z,44.06
2023-01-06T05:21:32.466Z,44.34
2023-01-06T05:22:05.187Z,44.09
2023-01-06T05:22:40.068Z,44.01
2023-01-06T05:23:12.301Z,44.42
2023-01-06T05:23:44.548Z,43.97
2023-01-06T05:24:19.380Z,44.17
2023-01-06T05:24:51.640Z,43.94
2023-01-06T05:25:23.862Z,44.40
2023-01-06T05:25:58.780Z,44.24
2023-01-06T05:26:31.068Z,44.26
2023-01-06T05:27:03.347Z,44.19
2023-01-06T05:27:38.219Z,43.95
2023-01-06T05:28:10.456Z,44.17
2023-01-06T05:28:42.681Z,44.08
2023-01-06T05:29:19.715Z,44.17
2023-01-06T05:29:51.947Z,43.89
2023-01-06T05:30:24.175Z,44.07
2023-01-06T05:31:02.365Z,44.34
2023-01-06T05:31:34.612Z,44.12
2023-01-06T05:32:07.194Z,44.10
2023-01-06T05:32:42.034Z,44.05
2023-01-06T05:33:14.503Z,44.14
2023-01-06T05:33:46.786Z,44.16
2023-01-06T05:34:24.242Z,43.88
2023-01-06T05:34:56.502Z,44.04
2023-01-06T05:35:28.725Z,44.05
2023-01-06T05:36:04.521Z,44.13
2023-01-06T05:36:36.891Z,44.38
2023-01-06T05:37:09.164Z,44.29
2023-01-06T05:37:44.043Z,44.10
2023-01-06T05:38:16.270Z,44.00
2023-01-06T05:38:52.007Z,44.25
2023-01-06T05:39:27.183Z,44.01
2023-01-06T05:39:59.415Z,44.06
2023-01-06T05:40:31.639Z,44.46
2023-01-06T05:41:06.776Z,44.07
2023-01-06T05:41:39.007Z,44.07
2023-01-06T05:42:11.243Z,44.09
2023-01-06T05:42:46.087Z,44.26
2023-01-06T05:43:18.315Z,44.22
2023-01-06T05:43:50.532Z,44.07
2023-01-06T05:44:25.410Z,44.43
2023-01-06T05:44:57.659Z,44.46
2023-01-06T05:45:29.997Z,44.35
2023-01-06T05:46:08.829Z,44.44
2023-01-06T05:46:41.131Z,44.14
2023-01-06T05:47:13.364Z,44.58
2023-01-06T05:47:48.201Z,44.26
2023-01-06T05:48:20.939Z,44.53
2023-01-06T05:48:53.167Z,44.42
2023-01-06T05:49:30.633Z,44.32
2023-01-06T05:50:03.437Z,44.36
2023-01-06T05:50:35.788Z,44.62
2023-01-06T05:51:12.752Z,44.22
2023-01-06T05:51:45.017Z,44.58
2023-01-06T05:52:19.851Z,44.57
2023-01-06T05:52:52.235Z,44.26
2023-01-06T05:53:24.459Z,44.19
2023-01-06T05:53:59.285Z,44.67
2023-01-06T05:54:31.496Z,44.41
2023-01-06T05:55:04.519Z,44.05
2023-01-06T05:55:39.377Z,44.48
2023-01-06T05:56:12.617Z,44.36
2023-01-06T05:56:44.881Z,44.15
2023-01-06T05:57:20.295Z,44.46
2023-01-06T05:57:52.516Z,44.33
2023-01-06T05:58:24.754Z,44.09
2023-01-06T05:58:59.572Z,44.47
2023-01-06T05:59:31.803Z,44.10
2023-01-06T06:00:05.629Z,44.39
2023-01-06T06:00:46.912Z,44.61
2023-01-06T06:01:21.066Z,44.55
2023-01-06T06:01:56.298Z,44.59
2023-01-06T06:02:28.646Z,44.53
2023-01-06T06:03:00.869Z,44.43
2023-01-06T06:03:36.068Z,44.40
2023-01-06T06:04:08.381Z,44.31
2023-01-06T06:04:46.576Z,44.29
2023-01-06T06:05:18.858Z,44.18
2023-01-06T06:05:51.099Z,44.19
2023-01-06T06:06:27.938Z,44.34
2023-01-06T06:07:00.165Z,44.22
2023-01-06T06:07:32.396Z,44.61
2023-01-06T06:08:09.288Z,44.16
2023-01-06T06:08:41.667Z,44.28
2023-01-06T06:09:16.491Z,44.48
2023-01-06T06:09:48.880Z,44.43
2023-01-06T06:10:21.597Z,44.50
2023-01-06T06:10:56.427Z,44.36
2023-01-06T06:11:28.666Z,44.19
2023-01-06T06:12:00.903Z,44.26
2023-01-06T06:12:36.156Z,44.67
2023-01-06T06:13:08.451Z,44.76
2023-01-06T06:13:45.681Z,44.29
2023-01-06T06:14:20.685Z,44.32
2023-01-06T06:14:52.939Z,44.58
2023-01-06T06:15:25.267Z,44.62
2023-01-06T06:16:07.171Z,44.12
2023-01-06T06:16:39.433Z,44.47
2023-01-06T06:17:14.286Z,44.39
2023-01-06T06:17:46.545Z,44.16
2023-01-06T06:18:18.895Z,44.22
2023-01-06T06:18:55.854Z,44.02
2023-01-06T06:19:28.090Z,44.55
2023-01-06T06:20:03.452Z,44.50
2023-01-06T06:20:38.294Z,44.48
2023-01-06T06:21:11.762Z,44.58
2023-01-06T06:21:44.059Z,44.72
2023-01-06T06:22:18.874Z,44.77
2023-01-06T06:22:51.182Z,44.67
2023-01-06T06:23:23.411Z,44.46
2023-01-06T06:23:59.482Z,44.25
2023-01-06T06:24:31.700Z,44.64
2023-01-06T06:25:04.201Z,44.52
2023-01-06T06:25:39.031Z,44.40
2023-01-06T06:26:12.391Z,44.59
2023-01-06T06:26:44.711Z,44.43
2023-01-06T06:27:19.540Z,44.36
2023-01-06T06:27:51.771Z,44.99
2023-01-06T06:28:24.425Z,44.67
2023-01-06T06:28:59.275Z,44.58
2023-01-06T06:29:31.499Z,44.83
2023-01-06T06:30:04.090Z,44.74
2023-01-06T06:30:38.914Z,44.63
2023-01-06T06:31:12.963Z,44.81
2023-01-06T06:31:47.853Z,44.74
2023-01-06T06:32:20.091Z,44.59
2023-01-06T06:32:52.358Z,44.53
2023-01-06T06:33:27.228Z,44.79
2023-01-06T06:34:00.834Z,44.53
2023-01-06T06:34:35.684Z,44.69
2023-01-06T06:35:10.681Z,44.75
2023-01-06T06:35:42.930Z,44.89
2023-01-06T06:36:18.363Z,44.83
2023-01-06T06:36:50.651Z,44.56
2023-01-06T06:37:25.508Z,44.42
2023-01-06T06:37:57.807Z,44.54
2023-01-06T06:38:30.468Z,44.65
2023-01-06T06:39:05.429Z,44.61
2023-01-06T06:39:37.688Z,44.56
2023-01-06T06:40:14.036Z,44.83
2023-01-06T06:40:46.262Z,44.31
2023-01-06T06:41:19.391Z,44.30
2023-01-06T06:41:54.236Z,44.65
2023-01-06T06:42:26.497Z,44.56
2023-01-06T06:42:58.718Z,44.37
2023-01-06T06:43:33.567Z,44.70
2023-01-06T06:44:06.091Z,44.53
2023-01-06T06:44:40.925Z,44.42
2023-01-06T06:45:13.149Z,44.43
2023-01-06T06:45:45.573Z,44.54
2023-01-06T06:46:21.127Z,44.70
2023-01-06T06:46:53.412Z,44.65
2023-01-06T06:47:25.672Z,44.29
2023-01-06T06:48:00.480Z,44.67
2023-01-06T06:48:32.763Z,44.35
2023-01-06T06:49:05.084Z,44.68
2023-01-06T06:49:39.906Z,44.54
2023-01-06T06:50:14.738Z,44.36
2023-01-06T06:50:46.975Z,44.75
2023-01-06T06:51:23.576Z,44.50
2023-01-06T06:51:55.895Z,44.55
2023-01-06T06:52:30.766Z,44.31
2023-01-06T06:53:02.998Z,44.41
2023-01-06T06:53:35.823Z,44.56
2023-01-06T06:54:10.649Z,44.47
2023-01-06T06:54:42.872Z,44.35
2023-01-06T06:55:15.114Z,44.47
2023-01-06T06:55:47.329Z,44.41
2023-01-06T06:56:23.334Z,44.66
2023-01-06T06:56:57.100Z,44.53
2023-01-06T06:57:32.014Z,44.63
2023-01-06T06:58:04.269Z,44.84
2023-01-06T06:58:37.635Z,44.69
2023-01-06T06:59:12.488Z,44.57
2023-01-06T06:59:44.705Z,44.73
2023-01-06T07:00:20.247Z,44.61
2023-01-06T07:00:53.027Z,44.50
2023-01-06T07:01:28.080Z,44.72
2023-01-06T07:02:00.482Z,44.65
2023-01-06T07:02:32.841Z,44.48
2023-01-06T07:03:07.654Z,44.57
2023-01-06T07:03:39.998Z,44.73
2023-01-06T07:04:12.391Z,44.65
2023-01-06T07:04:47.360Z,44.41
2023-01-06T07:05:22.698Z,44.78
2023-01-06T07:05:54.982Z,44.24
2023-01-06T07:06:31.641Z,44.41
2023-01-06T07:07:03.894Z,44.61
2023-01-06T07:07:36.206Z,44.79
2023-01-06T07:08:11.100Z,44.26
2023-01-06T07:08:44.403Z,44.72
2023-01-06T07:09:19.227Z,44.69
2023-01-06T07:09:51.455Z,44.39
2023-01-06T07:10:23.777Z,44.65
2023-01-06T07:10:58.603Z,44.50
2023-01-06T07:11:30.816Z,44.55
2023-01-06T07:12:05.752Z,44.52
2023-01-06T07:12:38.041Z,44.82
2023-01-06T07:13:10.533Z,44.97
2023-01-06T07:13:45.508Z,44.99
2023-01-06T07:14:17.731Z,44.91
2023-01-06T07:14:49.945Z,44.67
2023-01-06T07:15:24.815Z,44.55
2023-01-06T07:15:57.099Z,45.00
2023-01-06T07:16:32.004Z,44.43
2023-01-06T07:17:04.297Z,44.28
2023-01-06T07:17:36.559Z,44.77
2023-01-06T07:18:11.431Z,44.44
2023-01-06T07:18:43.671Z,44.33
2023-01-06T07:19:15.952Z,44.49
2023-01-06T07:19:50.785Z,45.06
2023-01-06T07:20:25.612Z,44.45
2023-01-06T07:20:57.869Z,44.74
2023-01-06T07:21:32.687Z,44.31
2023-01-06T07:22:04.896Z,44.41
2023-01-06T07:22:38.131Z,44.61
2023-01-06T07:23:12.979Z,44.87
2023-01-06T07:23:45.224Z,44.76
2023-01-06T07:24:17.447Z,44.82
2023-01-06T07:24:52.267Z,44.45
2023-01-06T07:25:24.698Z,44.75
2023-01-06T07:26:00.774Z,44.32
2023-01-06T07:26:33.024Z,44.73
2023-01-06T07:27:07.837Z,44.67
2023-01-06T07:27:40.059Z,44.31
2023-01-06T07:28:14.910Z,44.42
2023-01-06T07:28:47.207Z,44.77
2023-01-06T07:29:22.020Z,44.58
2023-01-06T07:29:54.246Z,44.77
2023-01-06T07:30:27.405Z,44.34
2023-01-06T07:31:02.563Z,44.81
2023-01-06T07:31:34.932Z,44.36
2023-01-06T07:32:09.410Z,44.64
2023-01-06T07:32:45.067Z,44.34
2023-01-06T07:33:17.911Z,44.72
2023-01-06T07:33:50.142Z,44.53
2023-01-06T07:34:24.947Z,44.77
2023-01-06T07:34:57.204Z,44.65
2023-01-06T07:35:32.175Z,44.75
2023-01-06T07:36:07.690Z,44.78
2023-01-06T07:36:40.002Z,44.58
2023-01-06T07:37:12.225Z,44.73
2023-01-06T07:37:47.196Z,44.58